sensor_id;sensor_type;location;lat;lon;timestamp;temperature;humidity
15099;DHT22;33900;53.640;9.942;2023-08-07T11:07:21;18.00;86.60
15099;DHT22;33900;53.640;9.942;2023-08-07T11:09:47;18.10;86.70
15099;DHT22;33900;53.640;9.942;2023-08-07T11:12:13;18.20;86.90
15099;DHT22;33900;53.640;9.942;2023-08-07T11:14:38;18.40;87.40
15099;DHT22;33900;53.640;9.942;2023-08-07T11:17:06;18.50;87.20
15099;DHT22;33900;53.640;9.942;2023-08-07T11:19:31;18.60;87.70
15099;DHT22;33900;53.640;9.942;2023-08-07T11:21:58;18.70;86.80
15099;DHT22;33900;53.640;9.942;2023-08-07T11:24:23;18.70;87.60
15099;DHT22;33900;53.640;9.942;2023-08-07T11:26:49;18.80;87.70
15099;DHT22;33900;53.640;9.942;2023-08-07T11:29:18;18.90;88.00
15099;DHT22;33900;53.640;9.942;2023-08-07T11:31:44;19.00;87.30
15099;DHT22;33900;53.640;9.942;2023-08-07T11:34:10;19.10;86.80
15099;DHT22;33900;53.640;9.942;2023-08-07T11:36:42;19.20;86.90
15099;DHT22;33900;53.640;9.942;2023-08-07T11:39:08;19.30;87.50
15099;DHT22;33900;53.640;9.942;2023-08-07T11:41:33;19.40;86.90
15099;DHT22;33900;53.640;9.942;2023-08-07T11:43:59;19.50;85.80
15099;DHT22;33900;53.640;9.942;2023-08-07T11:46:25;19.50;84.40
15099;DHT22;33900;53.640;9.942;2023-08-07T11:48:51;19.50;81.20
15099;DHT22;33900;53.640;9.942;2023-08-07T11:51:17;19.50;81.50
15099;DHT22;33900;53.640;9.942;2023-08-07T11:53:45;19.50;83.00
15099;DHT22;33900;53.640;9.942;2023-08-07T11:56:12;19.50;81.60
15099;DHT22;33900;53.640;9.942;2023-08-07T11:58:41;19.50;81.40
15099;DHT22;33900;53.640;9.942;2023-08-07T12:01:10;19.50;81.80
15099;DHT22;33900;53.640;9.942;2023-08-07T12:03:37;19.60;81.60
15099;DHT22;33900;53.640;9.942;2023-08-07T12:06:07;19.60;81.30
15099;DHT22;33900;53.640;9.942;2023-08-07T12:08:37;19.50;81.40
15099;DHT22;33900;53.640;9.942;2023-08-07T12:11:08;19.40;81.00
15099;DHT22;33900;53.640;9.942;2023-08-07T12:13:38;19.30;81.90
15099;DHT22;33900;53.640;9.942;2023-08-07T12:16:04;19.20;82.50
15099;DHT22;33900;53.640;9.942;2023-08-07T12:18:30;19.20;82.20
15099;DHT22;33900;53.640;9.942;2023-08-07T12:20:57;19.10;82.80
15099;DHT22;33900;53.640;9.942;2023-08-07T12:23:24;19.20;83.40
15099;DHT22;33900;53.640;9.942;2023-08-07T12:25:49;19.20;82.40
15099;DHT22;33900;53.640;9.942;2023-08-07T12:28:15;19.20;83.40
15099;DHT22;33900;53.640;9.942;2023-08-07T12:30:44;19.20;82.60
15099;DHT22;33900;53.640;9.942;2023-08-07T12:33:10;19.20;82.20
15099;DHT22;33900;53.640;9.942;2023-08-07T12:35:35;19.20;82.80
15099;DHT22;33900;53.640;9.942;2023-08-07T12:38:01;19.20;83.70
15099;DHT22;33900;53.640;9.942;2023-08-07T12:40:30;19.20;84.30
15099;DHT22;33900;53.640;9.942;2023-08-07T12:42:56;19.20;84.20
15099;DHT22;33900;53.640;9.942;2023-08-07T12:45:22;19.30;84.30
15099;DHT22;33900;53.640;9.942;2023-08-07T12:47:48;19.40;84.00
15099;DHT22;33900;53.640;9.942;2023-08-07T12:50:13;19.60;84.70
15099;DHT22;33900;53.640;9.942;2023-08-07T12:52:39;19.70;84.50
15099;DHT22;33900;53.640;9.942;2023-08-07T12:55:04;19.70;83.60
15099;DHT22;33900;53.640;9.942;2023-08-07T12:57:31;19.70;82.00
15099;DHT22;33900;53.640;9.942;2023-08-07T12:59:56;19.70;83.10
15099;DHT22;33900;53.640;9.942;2023-08-07T13:02:22;19.60;81.70
15099;DHT22;33900;53.640;9.942;2023-08-07T13:04:47;19.60;81.80
15099;DHT22;33900;53.640;9.942;2023-08-07T13:07:13;19.60;81.70
15099;DHT22;33900;53.640;9.942;2023-08-07T13:09:38;19.60;82.10
15099;DHT22;33900;53.640;9.942;2023-08-07T13:12:04;19.70;80.20
15099;DHT22;33900;53.640;9.942;2023-08-07T13:14:30;19.70;79.20
15099;DHT22;33900;53.640;9.942;2023-08-07T13:16:55;19.70;80.20
15099;DHT22;33900;53.640;9.942;2023-08-07T13:19:21;19.80;80.80
15099;DHT22;33900;53.640;9.942;2023-08-07T13:21:46;19.90;80.90
15099;DHT22;33900;53.640;9.942;2023-08-07T13:24:12;20.00;81.20
15099;DHT22;33900;53.640;9.942;2023-08-07T13:26:38;20.20;80.50
15099;DHT22;33900;53.640;9.942;2023-08-07T13:29:13;20.20;80.30
15099;DHT22;33900;53.640;9.942;2023-08-07T13:31:39;20.20;79.90
15099;DHT22;33900;53.640;9.942;2023-08-07T13:34:07;20.20;79.40
15099;DHT22;33900;53.640;9.942;2023-08-07T13:36:35;20.20;80.50
15099;DHT22;33900;53.640;9.942;2023-08-07T13:39:01;20.30;80.80
15099;DHT22;33900;53.640;9.942;2023-08-07T13:41:27;20.30;79.10
15099;DHT22;33900;53.640;9.942;2023-08-07T13:43:52;20.30;76.90
15099;DHT22;33900;53.640;9.942;2023-08-07T13:46:18;20.20;76.50
15099;DHT22;33900;53.640;9.942;2023-08-07T13:48:46;20.20;75.60
15099;DHT22;33900;53.640;9.942;2023-08-07T13:51:13;20.10;76.10
15099;DHT22;33900;53.640;9.942;2023-08-07T13:53:39;20.10;76.40
15099;DHT22;33900;53.640;9.942;2023-08-07T13:56:04;20.00;77.00
15099;DHT22;33900;53.640;9.942;2023-08-07T13:58:30;19.90;77.00
15099;DHT22;33900;53.640;9.942;2023-08-07T14:00:55;19.90;76.50
15099;DHT22;33900;53.640;9.942;2023-08-07T14:03:22;19.80;76.30
15099;DHT22;33900;53.640;9.942;2023-08-07T14:05:48;19.80;76.00
15099;DHT22;33900;53.640;9.942;2023-08-07T14:08:13;19.70;76.10
15099;DHT22;33900;53.640;9.942;2023-08-07T14:10:39;19.60;75.80
15099;DHT22;33900;53.640;9.942;2023-08-07T14:13:06;19.60;76.30
15099;DHT22;33900;53.640;9.942;2023-08-07T14:15:31;19.60;76.30
15099;DHT22;33900;53.640;9.942;2023-08-07T14:17:57;19.60;76.80
15099;DHT22;33900;53.640;9.942;2023-08-07T14:20:23;19.70;76.50
15099;DHT22;33900;53.640;9.942;2023-08-07T14:22:49;19.70;77.30
15099;DHT22;33900;53.640;9.942;2023-08-07T14:25:14;19.80;75.30
15099;DHT22;33900;53.640;9.942;2023-08-07T14:27:40;19.80;74.90
15099;DHT22;33900;53.640;9.942;2023-08-07T14:30:06;19.90;74.60
15099;DHT22;33900;53.640;9.942;2023-08-07T14:32:31;20.00;75.20
15099;DHT22;33900;53.640;9.942;2023-08-07T14:34:57;20.10;74.80
15099;DHT22;33900;53.640;9.942;2023-08-07T14:37:22;20.10;74.60
15099;DHT22;33900;53.640;9.942;2023-08-07T14:39:48;20.10;71.40
15099;DHT22;33900;53.640;9.942;2023-08-07T14:42:14;20.10;71.40
15099;DHT22;33900;53.640;9.942;2023-08-07T14:44:39;20.20;71.90
15099;DHT22;33900;53.640;9.942;2023-08-07T14:47:05;20.20;70.00
15099;DHT22;33900;53.640;9.942;2023-08-07T14:49:30;20.10;70.50
15099;DHT22;33900;53.640;9.942;2023-08-07T14:51:56;20.00;70.70
15099;DHT22;33900;53.640;9.942;2023-08-07T14:54:21;19.90;70.90
15099;DHT22;33900;53.640;9.942;2023-08-07T14:56:49;19.90;71.80
15099;DHT22;33900;53.640;9.942;2023-08-07T14:59:15;19.80;73.70
15099;DHT22;33900;53.640;9.942;2023-08-07T15:01:40;19.60;76.10
15099;DHT22;33900;53.640;9.942;2023-08-07T15:04:06;19.50;76.90
15099;DHT22;33900;53.640;9.942;2023-08-07T15:06:31;19.40;79.00
15099;DHT22;33900;53.640;9.942;2023-08-07T15:08:58;19.30;80.00
15099;DHT22;33900;53.640;9.942;2023-08-07T15:11:24;19.30;80.40
15099;DHT22;33900;53.640;9.942;2023-08-07T15:13:50;19.20;81.00
15099;DHT22;33900;53.640;9.942;2023-08-07T15:16:15;19.10;81.60
15099;DHT22;33900;53.640;9.942;2023-08-07T15:18:41;18.90;82.60
15099;DHT22;33900;53.640;9.942;2023-08-07T15:21:06;18.90;83.10
15099;DHT22;33900;53.640;9.942;2023-08-07T15:23:32;18.80;83.90
15099;DHT22;33900;53.640;9.942;2023-08-07T15:25:58;18.80;83.90
15099;DHT22;33900;53.640;9.942;2023-08-07T15:28:23;18.70;83.90
15099;DHT22;33900;53.640;9.942;2023-08-07T15:30:49;18.80;84.40
15099;DHT22;33900;53.640;9.942;2023-08-07T15:33:16;18.80;84.40
15099;DHT22;33900;53.640;9.942;2023-08-07T15:35:41;18.80;84.30
15099;DHT22;33900;53.640;9.942;2023-08-07T15:38:07;18.90;83.40
15099;DHT22;33900;53.640;9.942;2023-08-07T15:40:34;18.80;83.70
15099;DHT22;33900;53.640;9.942;2023-08-07T15:42:59;18.80;84.90
15099;DHT22;33900;53.640;9.942;2023-08-07T15:45:25;18.70;84.60
15099;DHT22;33900;53.640;9.942;2023-08-07T15:47:50;18.60;83.80
15099;DHT22;33900;53.640;9.942;2023-08-07T15:50:16;18.40;83.80
15099;DHT22;33900;53.640;9.942;2023-08-07T15:52:42;18.40;84.40
15099;DHT22;33900;53.640;9.942;2023-08-07T15:55:08;18.30;85.00
15099;DHT22;33900;53.640;9.942;2023-08-07T15:57:33;18.30;85.40
15099;DHT22;33900;53.640;9.942;2023-08-07T15:59:59;18.30;85.60
15099;DHT22;33900;53.640;9.942;2023-08-07T16:02:24;18.20;85.40
15099;DHT22;33900;53.640;9.942;2023-08-07T16:04:50;18.30;85.50
15099;DHT22;33900;53.640;9.942;2023-08-07T16:07:15;18.20;86.10
15099;DHT22;33900;53.640;9.942;2023-08-07T16:09:41;18.30;86.30
15099;DHT22;33900;53.640;9.942;2023-08-07T16:12:06;18.30;86.50
15099;DHT22;33900;53.640;9.942;2023-08-07T16:14:32;18.30;87.00
15099;DHT22;33900;53.640;9.942;2023-08-07T16:16:58;18.30;86.90
15099;DHT22;33900;53.640;9.942;2023-08-07T16:19:23;18.30;87.10
15099;DHT22;33900;53.640;9.942;2023-08-07T16:21:49;18.30;87.10
15099;DHT22;33900;53.640;9.942;2023-08-07T16:24:14;18.30;87.20
15099;DHT22;33900;53.640;9.942;2023-08-07T16:26:40;18.30;87.20
15099;DHT22;33900;53.640;9.942;2023-08-07T16:29:05;18.20;87.20
15099;DHT22;33900;53.640;9.942;2023-08-07T16:31:31;18.20;86.60
15099;DHT22;33900;53.640;9.942;2023-08-07T16:33:56;18.30;86.50
15099;DHT22;33900;53.640;9.942;2023-08-07T16:36:22;18.40;86.90
15099;DHT22;33900;53.640;9.942;2023-08-07T16:38:48;18.40;86.80
15099;DHT22;33900;53.640;9.942;2023-08-07T16:41:14;18.50;86.00
15099;DHT22;33900;53.640;9.942;2023-08-07T16:43:40;18.50;85.30
15099;DHT22;33900;53.640;9.942;2023-08-07T16:46:06;18.50;85.30
15099;DHT22;33900;53.640;9.942;2023-08-07T16:48:32;18.60;84.00
15099;DHT22;33900;53.640;9.942;2023-08-07T16:50:57;18.50;84.30
15099;DHT22;33900;53.640;9.942;2023-08-07T16:53:23;18.60;84.20
15099;DHT22;33900;53.640;9.942;2023-08-07T16:55:48;18.60;82.70
15099;DHT22;33900;53.640;9.942;2023-08-07T16:58:15;18.60;82.30
15099;DHT22;33900;53.640;9.942;2023-08-07T17:00:40;18.60;82.50
15099;DHT22;33900;53.640;9.942;2023-08-07T17:03:06;18.60;82.10
15099;DHT22;33900;53.640;9.942;2023-08-07T17:05:31;18.60;81.70
15099;DHT22;33900;53.640;9.942;2023-08-07T17:07:57;18.60;82.10
15099;DHT22;33900;53.640;9.942;2023-08-07T17:10:22;18.60;82.50
15099;DHT22;33900;53.640;9.942;2023-08-07T17:12:48;18.60;81.10
15099;DHT22;33900;53.640;9.942;2023-08-07T17:15:13;18.60;81.20
15099;DHT22;33900;53.640;9.942;2023-08-07T17:17:39;18.60;81.20
15099;DHT22;33900;53.640;9.942;2023-08-07T17:20:05;18.60;81.30
15099;DHT22;33900;53.640;9.942;2023-08-07T17:22:31;18.60;81.10
15099;DHT22;33900;53.640;9.942;2023-08-07T17:24:57;18.60;80.60
15099;DHT22;33900;53.640;9.942;2023-08-07T17:27:22;18.60;80.70
15099;DHT22;33900;53.640;9.942;2023-08-07T17:29:48;18.50;80.70
15099;DHT22;33900;53.640;9.942;2023-08-07T17:32:13;18.50;80.50
15099;DHT22;33900;53.640;9.942;2023-08-07T17:34:39;18.50;81.20
15099;DHT22;33900;53.640;9.942;2023-08-07T17:37:05;18.50;80.80
15099;DHT22;33900;53.640;9.942;2023-08-07T17:39:30;18.50;81.40
15099;DHT22;33900;53.640;9.942;2023-08-07T17:41:56;18.40;82.00
15099;DHT22;33900;53.640;9.942;2023-08-07T17:44:22;18.40;82.90
15099;DHT22;33900;53.640;9.942;2023-08-07T17:46:47;18.30;83.50
15099;DHT22;33900;53.640;9.942;2023-08-07T17:49:13;18.20;84.10
15099;DHT22;33900;53.640;9.942;2023-08-07T17:51:39;18.20;85.00
15099;DHT22;33900;53.640;9.942;2023-08-07T17:54:04;18.10;85.10
15099;DHT22;33900;53.640;9.942;2023-08-07T17:56:30;18.00;85.50
15099;DHT22;33900;53.640;9.942;2023-08-07T17:58:58;18.00;85.60
15099;DHT22;33900;53.640;9.942;2023-08-07T18:01:24;18.00;86.20
15099;DHT22;33900;53.640;9.942;2023-08-07T18:03:49;17.90;86.50
15099;DHT22;33900;53.640;9.942;2023-08-07T18:06:15;17.90;87.00
15099;DHT22;33900;53.640;9.942;2023-08-07T18:08:40;17.80;87.50
15099;DHT22;33900;53.640;9.942;2023-08-07T18:11:06;17.80;87.50
15099;DHT22;33900;53.640;9.942;2023-08-07T18:13:31;17.70;87.80
15099;DHT22;33900;53.640;9.942;2023-08-07T18:15:57;17.70;88.20
15099;DHT22;33900;53.640;9.942;2023-08-07T18:18:23;17.70;88.40
15099;DHT22;33900;53.640;9.942;2023-08-07T18:20:49;17.70;88.40
15099;DHT22;33900;53.640;9.942;2023-08-07T18:23:15;17.60;88.40
15099;DHT22;33900;53.640;9.942;2023-08-07T18:25:40;17.70;88.50
15099;DHT22;33900;53.640;9.942;2023-08-07T18:28:06;17.60;88.10
15099;DHT22;33900;53.640;9.942;2023-08-07T18:30:31;17.60;88.40
15099;DHT22;33900;53.640;9.942;2023-08-07T18:32:57;17.50;88.90
15099;DHT22;33900;53.640;9.942;2023-08-07T18:35:22;17.50;89.10
15099;DHT22;33900;53.640;9.942;2023-08-07T18:37:48;17.40;89.40
15099;DHT22;33900;53.640;9.942;2023-08-07T18:40:14;17.40;89.80
15099;DHT22;33900;53.640;9.942;2023-08-07T18:42:40;17.40;90.00
15099;DHT22;33900;53.640;9.942;2023-08-07T18:45:05;17.30;90.10
15099;DHT22;33900;53.640;9.942;2023-08-07T18:47:31;17.30;90.20
15099;DHT22;33900;53.640;9.942;2023-08-07T18:49:56;17.30;90.30
15099;DHT22;33900;53.640;9.942;2023-08-07T18:52:22;17.30;90.30
15099;DHT22;33900;53.640;9.942;2023-08-07T18:54:48;17.30;90.40
15099;DHT22;33900;53.640;9.942;2023-08-07T18:57:13;17.30;90.50
15099;DHT22;33900;53.640;9.942;2023-08-07T18:59:39;17.30;90.50
15099;DHT22;33900;53.640;9.942;2023-08-07T19:02:04;17.30;90.70
15099;DHT22;33900;53.640;9.942;2023-08-07T19:04:30;17.30;90.60
15099;DHT22;33900;53.640;9.942;2023-08-07T19:06:55;17.30;90.70
15099;DHT22;33900;53.640;9.942;2023-08-07T19:09:21;17.30;90.70
15099;DHT22;33900;53.640;9.942;2023-08-07T19:11:46;17.30;90.70
15099;DHT22;33900;53.640;9.942;2023-08-07T19:14:12;17.30;90.80
15099;DHT22;33900;53.640;9.942;2023-08-07T19:16:37;17.30;90.70
15099;DHT22;33900;53.640;9.942;2023-08-07T19:19:04;17.30;90.80
15099;DHT22;33900;53.640;9.942;2023-08-07T19:21:29;17.30;90.80
15099;DHT22;33900;53.640;9.942;2023-08-07T19:23:55;17.30;90.80
15099;DHT22;33900;53.640;9.942;2023-08-07T19:26:20;17.20;90.70
15099;DHT22;33900;53.640;9.942;2023-08-07T19:28:46;17.20;90.70
15099;DHT22;33900;53.640;9.942;2023-08-07T19:31:12;17.20;90.80
15099;DHT22;33900;53.640;9.942;2023-08-07T19:33:38;17.20;90.40
15099;DHT22;33900;53.640;9.942;2023-08-07T19:36:04;17.20;90.40
15099;DHT22;33900;53.640;9.942;2023-08-07T19:38:29;17.20;90.30
